Time;durP1;ratioP1;P1;durP2;ratioP2;P2;SDS_P1;SDS_P2;PMS_P1;PMS_P2;Temp;Humidity;BMP_temperature;BMP_pressure;BME280_temperature;BME280_humidity;BME280_pressure;Samples;Min_cycle;Max_cycle;Signal;HPM_P1;HPM_P2
2021/11/21 00:02:03;;;;;;;7.08;5.17;;;;;;;12.28;48.95;101744.66;1734444;82;21023;-60
2021/11/21 00:04:30;;;;;;;7.58;5.70;;;;;;;12.26;48.95;101749.03;1700907;84;21034;-54
2021/11/21 00:06:56;;;;;;;9.43;5.35;;;;;;;12.24;48.99;101744.27;1732838;81;21019;-57
2021/11/21 00:09:23;;;;;;;7.45;5.70;;;;;;;12.22;48.90;101743.39;1731391;81;21565;-58
2021/11/21 00:11:50;;;;;;;6.70;5.50;;;;;;;12.19;48.91;101740.41;1731504;81;21491;-57
2021/11/21 00:14:16;;;;;;;8.15;5.75;;;;;;;12.16;48.91;101742.17;1732121;81;21038;-56
2021/11/21 00:16:42;;;;;;;7.53;5.87;;;;;;;12.13;48.97;101743.53;1731578;81;21007;-60
2021/11/21 00:19:09;;;;;;;8.08;5.87;;;;;;;12.09;49.03;101748.37;1700462;83;21486;-57
2021/11/21 00:21:35;;;;;;;6.97;5.28;;;;;;;12.05;49.02;101749.28;1700800;84;20951;-59
2021/11/21 00:24:02;;;;;;;6.97;5.60;;;;;;;12.01;48.99;101745.83;1730140;82;21074;-54
2021/11/21 00:26:28;;;;;;;6.08;5.45;;;;;;;11.99;49.04;101748.89;1734396;81;21507;-58
2021/11/21 00:28:55;;;;;;;10.45;6.10;;;;;;;11.97;49.17;101751.13;1698442;84;21049;-57
2021/11/21 00:31:22;;;;;;;6.30;5.08;;;;;;;11.95;49.21;101756.80;1697685;84;21010;-54
2021/11/21 00:33:48;;;;;;;7.55;6.30;;;;;;;11.93;49.18;101757.27;1698017;84;21442;-58
2021/11/21 00:36:15;;;;;;;7.58;6.00;;;;;;;11.91;49.21;101762.94;1697696;84;20990;-56
2021/11/21 00:38:43;;;;;;;7.33;5.75;;;;;;;11.90;49.19;101763.80;1698228;84;20978;-59
2021/11/21 00:41:09;;;;;;;6.03;5.42;;;;;;;11.88;49.23;101755.13;1728093;81;21027;-58
2021/11/21 00:43:36;;;;;;;6.08;5.10;;;;;;;11.87;49.32;101755.56;1734389;81;21054;-57
2021/11/21 00:46:03;;;;;;;6.72;5.35;;;;;;;11.86;49.37;101750.38;1733114;81;21534;-58
2021/11/21 00:48:30;;;;;;;7.53;5.62;;;;;;;11.85;49.32;101753.88;1732531;81;21558;-54
2021/11/21 00:51:00;;;;;;;6.53;5.55;;;;;;;11.82;49.43;101754.77;1699294;84;21050;-53
2021/11/21 00:53:27;;;;;;;6.87;5.80;;;;;;;11.81;49.54;101761.31;1731969;81;21546;-57
2021/11/21 00:56:01;;;;;;;7.47;5.62;;;;;;;11.79;49.59;101759.13;1732696;81;21034;-56
2021/11/21 00:58:24;;;;;;;22.37;9.88;;;;;;;11.76;49.58;101760.48;1695053;84;21546;-58
2021/11/21 01:00:50;;;;;;;10.82;6.28;;;;;;;11.73;49.57;101759.20;1695054;84;21058;-54
2021/11/21 01:03:20;;;;;;;9.28;5.62;;;;;;;11.70;49.61;101760.55;1700584;84;21471;-60
2021/11/21 01:05:48;;;;;;;6.45;5.65;;;;;;;11.68;49.63;101750.58;1700362;84;21354;-61
2021/11/21 01:08:14;;;;;;;7.22;6.05;;;;;;;11.67;49.68;101757.95;1699500;84;21510;-54
2021/11/21 01:10:44;;;;;;;8.00;5.92;;;;;;;11.65;49.76;101759.25;1698211;84;21586;-57
2021/11/21 01:13:10;;;;;;;9.23;5.92;;;;;;;11.65;49.81;101758.38;1699444;84;21502;-57
2021/11/21 01:15:37;;;;;;;7.37;5.55;;;;;;;11.66;49.88;101769.25;1700600;84;21026;-55
2021/11/21 01:18:05;;;;;;;8.28;5.67;;;;;;;11.66;49.87;101754.91;1700297;84;21085;-58
2021/11/21 01:20:34;;;;;;;6.35;5.60;;;;;;;11.66;49.79;101751.00;1699694;84;21002;-54
2021/11/21 01:23:03;;;;;;;6.92;5.60;;;;;;;11.66;49.84;101748.39;1697864;84;21442;-54
2021/11/21 01:25:31;;;;;;;6.90;6.20;;;;;;;11.66;49.82;101748.00;1700266;83;21022;-54
2021/11/21 01:27:57;;;;;;;7.35;6.58;;;;;;;11.65;49.72;101755.34;1696506;83;21515;-57
2021/11/21 01:30:27;;;;;;;9.48;7.50;;;;;;;11.65;49.77;101758.38;1736843;81;21027;-58
2021/11/21 01:32:54;;;;;;;7.30;6.15;;;;;;;11.62;49.82;101767.55;1700685;84;21454;-56
2021/11/21 01:35:21;;;;;;;6.40;5.80;;;;;;;11.59;49.79;101761.92;1733997;81;22358;-54
2021/11/21 01:37:48;;;;;;;7.30;5.70;;;;;;;11.56;49.80;101753.28;1735011;81;21038;-59
2021/11/21 01:40:16;;;;;;;14.60;6.72;;;;;;;11.52;49.92;101747.67;1701096;84;21029;-58
2021/11/21 01:42:43;;;;;;;8.15;5.55;;;;;;;11.48;49.89;101743.78;1737000;80;21018;-54
2021/11/21 01:45:11;;;;;;;7.10;6.40;;;;;;;11.45;49.92;101742.52;1700535;84;21033;-58
2021/11/21 01:47:41;;;;;;;9.80;5.25;;;;;;;11.43;49.97;101744.28;1734345;81;21035;-58
2021/11/21 01:50:11;;;;;;;8.00;6.10;;;;;;;11.43;50.05;101735.16;1733602;81;21562;-55
2021/11/21 01:52:38;;;;;;;7.75;6.10;;;;;;;11.41;50.06;101736.92;1699958;82;20967;-55
2021/11/21 01:55:05;;;;;;;7.97;6.55;;;;;;;11.40;50.04;101731.27;1733888;81;21058;-58
2021/11/21 01:57:34;;;;;;;6.53;5.92;;;;;;;11.40;50.02;101727.36;1698221;84;21010;-55
2021/11/21 02:00:02;;;;;;;6.67;5.97;;;;;;;11.39;49.99;101724.34;1694424;84;21581;-58
2021/11/21 02:02:32;;;;;;;6.72;6.12;;;;;;;11.39;50.03;101730.86;1696726;84;21018;-55
2021/11/21 02:04:58;;;;;;;7.58;5.80;;;;;;;11.37;49.96;101733.05;1699653;84;20990;-60
2021/11/21 02:07:27;;;;;;;7.37;6.12;;;;;;;11.35;49.90;101733.03;1697653;83;21074;-60
2021/11/21 02:09:53;;;;;;;7.25;5.42;;;;;;;11.32;49.96;101736.98;1697800;84;21539;-58
2021/11/21 02:12:20;;;;;;;6.33;5.70;;;;;;;11.31;49.93;101745.67;1697887;84;21003;-57
2021/11/21 02:14:46;;;;;;;7.55;6.28;;;;;;;11.28;49.94;101741.80;1692391;84;21074;-58
2021/11/21 02:17:13;;;;;;;8.30;6.35;;;;;;;11.24;50.02;101730.98;1700955;84;21011;-55
2021/11/21 02:19:40;;;;;;;8.00;5.70;;;;;;;11.22;50.08;101734.48;1700229;84;21029;-58
2021/11/21 02:22:07;;;;;;;8.35;6.15;;;;;;;11.19;50.21;101740.57;1697840;84;21543;-54
2021/11/21 02:24:33;;;;;;;6.55;5.83;;;;;;;11.16;50.25;101745.83;1690191;84;21097;-54
2021/11/21 02:27:01;;;;;;;9.78;6.10;;;;;;;11.15;50.33;101738.00;1697644;84;20966;-59
2021/11/21 02:29:28;;;;;;;6.25;5.62;;;;;;;11.12;50.44;101738.91;1696819;84;21106;-54
2021/11/21 02:31:55;;;;;;;7.72;6.10;;;;;;;11.11;50.54;101747.59;1703226;83;20959;-54
2021/11/21 02:34:21;;;;;;;6.60;5.90;;;;;;;11.12;50.65;101749.77;1699563;84;21022;-61
2021/11/21 02:36:49;;;;;;;7.58;5.53;;;;;;;11.12;50.65;101736.31;1697936;84;21571;-53
2021/11/21 02:39:17;;;;;;;7.85;5.75;;;;;;;11.12;50.63;101746.73;1697871;83;20987;-54
2021/11/21 02:41:44;;;;;;;9.95;6.50;;;;;;;11.13;50.64;101752.78;1697822;84;21530;-59
2021/11/21 02:44:11;;;;;;;8.28;5.87;;;;;;;11.14;50.52;101747.58;1697993;83;21502;-60
2021/11/21 02:46:38;;;;;;;7.20;5.70;;;;;;;11.13;50.56;101739.32;1699404;84;21074;-55
2021/11/21 02:49:04;;;;;;;8.88;6.00;;;;;;;11.14;50.52;101735.86;1700632;84;20979;-58
2021/11/21 02:51:31;;;;;;;8.38;5.60;;;;;;;11.15;50.48;101736.27;1696858;84;21045;-54
2021/11/21 02:53:58;;;;;;;7.15;6.10;;;;;;;11.15;50.46;101738.00;1700782;84;21487;-54
2021/11/21 02:56:25;;;;;;;7.37;6.05;;;;;;;11.15;50.37;101740.17;1700366;84;21486;-55
2021/11/21 02:58:52;;;;;;;7.70;6.10;;;;;;;11.13;50.40;101732.81;1697688;84;21042;-54
2021/11/21 03:01:24;;;;;;;6.95;6.20;;;;;;;11.12;50.32;101720.68;1692187;84;21538;-57
2021/11/21 03:03:51;;;;;;;7.33;5.75;;;;;;;11.10;50.24;101719.83;1697990;83;21072;-57
2021/11/21 03:06:18;;;;;;;7.83;6.40;;;;;;;11.08;50.32;101722.02;1699995;84;21006;-59
2021/11/21 03:08:45;;;;;;;8.73;6.33;;;;;;;11.04;50.28;101717.28;1700492;84;21034;-55
2021/11/21 03:11:29;;;;;;;9.68;6.17;;;;;;;11.02;50.29;101711.66;1699512;84;21521;-54
2021/11/21 03:13:57;;;;;;;6.80;6.10;;;;;;;10.99;50.39;101709.92;1706448;84;21030;-54
2021/11/21 03:16:25;;;;;;;10.05;5.85;;;;;;;10.97;50.42;101707.77;1704462;84;21077;-54
2021/11/21 03:18:51;;;;;;;6.50;5.78;;;;;;;10.96;50.45;101711.27;1699318;83;21066;-59
2021/11/21 03:21:18;;;;;;;7.33;6.12;;;;;;;10.94;50.46;101709.09;1699977;84;21021;-54
2021/11/21 03:23:45;;;;;;;8.65;6.50;;;;;;;10.94;50.40;101705.18;1700521;84;21007;-58
2021/11/21 03:26:12;;;;;;;7.45;6.50;;;;;;;10.93;50.43;101702.17;1700174;84;21510;-54
2021/11/21 03:28:39;;;;;;;9.08;6.55;;;;;;;10.91;50.48;101700.02;1695128;84;21070;-61
2021/11/21 03:31:06;;;;;;;7.00;6.30;;;;;;;10.92;50.56;101696.52;1697286;83;21018;-57
2021/11/21 03:33:32;;;;;;;8.38;6.20;;;;;;;10.91;50.51;101697.41;1697980;83;21014;-54
2021/11/21 03:35:58;;;;;;;6.33;5.72;;;;;;;10.91;50.51;101700.02;1698768;84;21010;-58
2021/11/21 03:38:26;;;;;;;7.97;6.58;;;;;;;10.92;50.46;101701.73;1700705;84;20995;-58
2021/11/21 03:40:53;;;;;;;7.20;6.47;;;;;;;10.93;50.51;101703.47;1700407;84;21038;-58
2021/11/21 03:43:20;;;;;;;8.83;6.33;;;;;;;10.92;50.51;101712.14;1698315;84;22193;-59
2021/11/21 03:45:47;;;;;;;7.95;6.47;;;;;;;10.91;50.45;101705.22;1699495;83;21018;-59
2021/11/21 03:48:13;;;;;;;9.68;6.95;;;;;;;10.89;50.49;101704.37;1698560;84;21490;-54
2021/11/21 03:50:40;;;;;;;9.23;6.55;;;;;;;10.86;50.49;101713.50;1701446;83;21050;-58
2021/11/21 03:53:07;;;;;;;7.60;6.62;;;;;;;10.83;50.55;101707.03;1692802;84;21100;-54
2021/11/21 03:55:35;;;;;;;8.53;6.80;;;;;;;10.81;50.53;101708.78;1697631;83;21037;-55
2021/11/21 03:58:01;;;;;;;7.40;5.97;;;;;;;10.77;50.49;101701.87;1697904;84;21026;-57
2021/11/21 04:00:28;;;;;;;8.33;6.35;;;;;;;10.74;50.45;101707.08;1689923;83;21070;-54
2021/11/21 04:02:56;;;;;;;8.43;6.62;;;;;;;10.73;50.64;101711.87;1700502;84;21007;-58
2021/11/21 04:05:23;;;;;;;8.48;6.67;;;;;;;10.73;50.63;101714.48;1699255;84;21506;-55
2021/11/21 04:07:49;;;;;;;7.60;6.08;;;;;;;10.71;50.66;101712.33;1698656;84;21010;-56
2021/11/21 04:10:17;;;;;;;7.55;6.62;;;;;;;10.72;50.72;101706.23;1702081;84;21013;-55
2021/11/21 04:12:43;;;;;;;10.58;6.22;;;;;;;10.73;50.69;101703.20;1700716;84;21042;-60
2021/11/21 04:15:10;;;;;;;8.80;6.83;;;;;;;10.72;50.69;101711.44;1700570;84;21058;-57
2021/11/21 04:17:38;;;;;;;8.75;6.92;;;;;;;10.72;50.65;101714.04;1698595;83;21569;-61
2021/11/21 04:20:07;;;;;;;9.33;7.00;;;;;;;10.71;50.71;101707.13;1688711;84;21050;-54
2021/11/21 04:22:34;;;;;;;7.90;5.95;;;;;;;10.71;50.73;101707.13;1696647;84;21530;-55
2021/11/21 04:25:01;;;;;;;9.33;6.42;;;;;;;10.71;50.68;101706.25;1691245;84;21042;-54
2021/11/21 04:27:28;;;;;;;8.50;6.70;;;;;;;10.70;50.70;101704.08;1696130;83;21061;-54
2021/11/21 04:29:55;;;;;;;10.40;6.70;;;;;;;10.69;50.70;101690.66;1697786;83;21050;-54
2021/11/21 04:32:22;;;;;;;8.38;6.78;;;;;;;10.69;50.69;101689.78;1696759;84;21539;-58
2021/11/21 04:34:50;;;;;;;8.63;6.28;;;;;;;10.69;50.73;101693.25;1700547;84;20986;-56
2021/11/21 04:37:17;;;;;;;9.88;7.45;;;;;;;10.68;50.79;101688.91;1700541;84;21003;-55
2021/11/21 04:39:43;;;;;;;7.72;6.95;;;;;;;10.69;50.70;101694.55;1692332;84;20943;-59
2021/11/21 04:42:10;;;;;;;7.92;6.85;;;;;;;10.67;50.71;101709.75;1697582;84;20999;-57
2021/11/21 04:44:37;;;;;;;7.92;7.10;;;;;;;10.64;50.80;101710.63;1698589;83;21515;-57
2021/11/21 04:47:05;;;;;;;7.25;6.33;;;;;;;10.61;50.79;101704.16;1694750;84;21010;-59
2021/11/21 04:49:32;;;;;;;8.55;7.25;;;;;;;10.58;50.88;101695.05;1700660;84;21546;-54
2021/11/21 04:51:58;;;;;;;11.15;7.15;;;;;;;10.54;51.02;101698.55;1697932;84;21062;-59
2021/11/21 04:54:26;;;;;;;7.03;6.00;;;;;;;10.53;51.11;101704.66;1699447;84;21014;-57
2021/11/21 04:56:53;;;;;;;8.40;7.10;;;;;;;10.51;51.25;101701.16;1698367;84;21030;-61
2021/11/21 04:59:20;;;;;;;9.38;6.72;;;;;;;10.48;51.37;101704.67;1701389;83;21070;-58
2021/11/21 05:01:48;;;;;;;9.70;7.62;;;;;;;10.48;51.41;101704.67;1700703;84;21490;-55
2021/11/21 05:04:14;;;;;;;7.92;7.12;;;;;;;10.48;51.50;101711.61;1703850;83;21034;-59
2021/11/21 05:06:41;;;;;;;7.20;6.50;;;;;;;10.48;51.51;101703.38;1697815;84;21244;-58
2021/11/21 05:09:08;;;;;;;10.75;7.10;;;;;;;10.51;51.46;101701.16;1697286;84;20990;-57
2021/11/21 05:11:35;;;;;;;7.50;6.80;;;;;;;10.51;51.48;101692.05;1697801;83;21010;-54
2021/11/21 05:14:04;;;;;;;7.80;7.00;;;;;;;10.53;51.48;101694.24;1698183;83;21467;-57
2021/11/21 05:16:34;;;;;;;9.63;6.62;;;;;;;10.53;51.46;101699.45;1730427;81;21496;-60
2021/11/21 05:19:01;;;;;;;7.90;6.72;;;;;;;10.55;51.53;101697.70;1675567;85;20998;-54
2021/11/21 05:21:28;;;;;;;9.40;7.20;;;;;;;10.55;51.45;101688.59;1674114;85;21061;-57
2021/11/21 05:23:56;;;;;;;9.40;7.20;;;;;;;10.57;51.51;101690.75;1679619;85;21153;-54
2021/11/21 05:26:24;;;;;;;8.15;6.80;;;;;;;10.59;51.49;101694.20;1677470;85;21053;-60
2021/11/21 05:28:51;;;;;;;10.03;7.62;;;;;;;10.59;51.47;101695.04;1670978;84;21541;-54
2021/11/21 05:31:17;;;;;;;8.18;7.10;;;;;;;10.61;51.43;101687.24;1673157;85;21116;-58
2021/11/21 05:33:44;;;;;;;7.30;6.58;;;;;;;10.62;51.41;101688.95;1674437;85;20970;-57
2021/11/21 05:36:12;;;;;;;8.83;7.35;;;;;;;10.63;51.42;101689.40;1674138;85;21077;-54
2021/11/21 05:38:39;;;;;;;8.58;7.37;;;;;;;10.66;51.38;101695.86;1677967;85;21033;-57
2021/11/21 05:41:05;;;;;;;8.23;7.30;;;;;;;10.67;51.43;101687.20;1673153;85;21591;-56
2021/11/21 05:43:32;;;;;;;9.98;7.17;;;;;;;10.69;51.39;101688.05;1673849;85;21092;-54
2021/11/21 05:45:59;;;;;;;7.65;6.85;;;;;;;10.72;51.36;101691.91;1674195;85;21101;-54
2021/11/21 05:48:25;;;;;;;8.05;7.17;;;;;;;10.74;51.30;101695.83;1674011;85;21641;-57
2021/11/21 05:50:52;;;;;;;9.03;7.22;;;;;;;10.76;51.27;101691.02;1671538;85;21025;-54
2021/11/21 05:53:18;;;;;;;8.78;7.70;;;;;;;10.80;51.35;101694.02;1671505;85;21038;-54
2021/11/21 05:55:45;;;;;;;9.58;7.47;;;;;;;10.84;51.40;101698.33;1679806;85;21569;-54
2021/11/21 05:58:11;;;;;;;8.75;7.10;;;;;;;10.92;51.40;101703.49;1673758;85;21077;-56
2021/11/21 06:00:38;;;;;;;7.50;6.80;;;;;;;11.00;51.38;101701.69;1672891;85;21074;-57
2021/11/21 06:03:04;;;;;;;8.73;7.20;;;;;;;11.06;51.40;101707.71;1674407;85;21053;-53
2021/11/21 06:05:31;;;;;;;9.58;7.65;;;;;;;11.19;51.23;101699.35;1672723;85;21108;-60
2021/11/21 06:07:58;;;;;;;10.78;7.55;;;;;;;11.33;51.09;101706.12;1673160;85;21116;-53
2021/11/21 06:10:25;;;;;;;8.73;7.50;;;;;;;11.43;50.82;101702.58;1672517;85;21073;-60
2021/11/21 06:12:52;;;;;;;8.45;7.55;;;;;;;11.60;50.40;101697.63;1675605;85;21014;-54
2021/11/21 06:15:19;;;;;;;9.60;8.05;;;;;;;11.71;50.29;101694.04;1693958;82;21566;-55
2021/11/21 06:17:45;;;;;;;9.83;7.58;;;;;;;11.83;50.02;101689.14;1738047;81;20972;-57
2021/11/21 06:20:12;;;;;;;8.73;6.92;;;;;;;11.90;49.85;101690.77;1731493;81;21046;-59
2021/11/21 06:22:39;;;;;;;10.70;7.00;;;;;;;11.94;49.67;101692.03;1731588;81;21059;-54
2021/11/21 06:25:07;;;;;;;11.18;7.53;;;;;;;11.97;49.63;101694.58;1724841;82;21046;-53
2021/11/21 06:27:33;;;;;;;7.95;7.08;;;;;;;11.99;49.76;101694.59;1700683;84;21019;-56
2021/11/21 06:30:00;;;;;;;7.95;7.20;;;;;;;11.99;49.77;101697.20;1697473;84;21471;-53
2021/11/21 06:32:27;;;;;;;8.70;7.30;;;;;;;12.00;49.79;101700.20;1697625;84;20975;-56
2021/11/21 06:34:53;;;;;;;8.43;7.37;;;;;;;12.01;49.88;101691.52;1698310;84;21057;-53
2021/11/21 06:37:19;;;;;;;8.88;7.30;;;;;;;12.05;49.97;101684.07;1698216;83;20963;-58
2021/11/21 06:39:46;;;;;;;9.23;6.85;;;;;;;12.08;49.92;101682.71;1699587;84;21054;-59
2021/11/21 06:42:13;;;;;;;8.68;7.05;;;;;;;12.11;49.94;101677.47;1700801;84;20983;-58
2021/11/21 06:44:41;;;;;;;8.10;7.30;;;;;;;12.15;50.02;101674.80;1733890;81;21328;-58
2021/11/21 06:47:08;;;;;;;8.75;7.60;;;;;;;12.19;50.09;101671.27;1731666;81;20987;-53
2021/11/21 06:49:36;;;;;;;8.38;7.50;;;;;;;12.26;50.16;101671.58;1696713;84;21065;-58
2021/11/21 06:52:04;;;;;;;9.08;7.00;;;;;;;12.32;50.01;101671.95;1700355;84;21100;-53
2021/11/21 06:54:31;;;;;;;10.78;7.67;;;;;;;12.38;49.91;101681.00;1721673;81;21597;-54
2021/11/21 06:56:57;;;;;;;8.05;7.28;;;;;;;12.42;49.93;101676.16;1733822;81;21023;-58
2021/11/21 06:59:24;;;;;;;9.95;7.55;;;;;;;12.46;50.00;101679.14;1697166;84;21006;-57
2021/11/21 07:01:50;;;;;;;8.25;7.30;;;;;;;12.51;50.03;101672.09;1696982;84;21018;-53
2021/11/21 07:04:16;;;;;;;8.38;7.12;;;;;;;12.56;50.10;101670.72;1699667;84;21038;-55
2021/11/21 07:06:46;;;;;;;8.48;6.70;;;;;;;12.61;50.12;101671.05;1700658;84;21058;-59
2021/11/21 07:09:15;;;;;;;8.20;7.40;;;;;;;12.67;50.09;101665.77;1700189;84;21518;-52
2021/11/21 07:11:43;;;;;;;8.43;7.05;;;;;;;12.74;50.16;101671.30;1699647;84;21029;-58
2021/11/21 07:14:11;;;;;;;7.78;7.03;;;;;;;12.80;50.21;101668.58;1695553;84;21030;-57
2021/11/21 07:16:39;;;;;;;10.40;7.67;;;;;;;12.88;50.17;101664.55;1690708;84;20982;-54
2021/11/21 07:19:06;;;;;;;9.38;7.45;;;;;;;12.95;50.12;101670.95;1700697;84;21061;-53
2021/11/21 07:21:33;;;;;;;7.97;7.22;;;;;;;13.03;49.88;101667.76;1698757;84;21049;-53
2021/11/21 07:23:59;;;;;;;8.88;8.08;;;;;;;13.12;49.68;101673.74;1698903;83;21498;-53
2021/11/21 07:26:26;;;;;;;10.13;8.80;;;;;;;13.18;49.52;101665.80;1700785;84;21041;-57
2021/11/21 07:28:53;;;;;;;11.18;8.95;;;;;;;13.23;49.47;101669.20;1690109;84;21033;-57
2021/11/21 07:31:20;;;;;;;10.53;8.80;;;;;;;13.29;49.35;101666.00;1697950;83;22384;-56
2021/11/21 07:33:46;;;;;;;8.95;7.97;;;;;;;13.34;49.18;101664.62;1698362;84;20979;-52
2021/11/21 07:36:13;;;;;;;9.48;7.90;;;;;;;13.38;49.08;101672.38;1703277;84;20998;-57
2021/11/21 07:38:40;;;;;;;8.50;7.60;;;;;;;13.43;49.10;101668.38;1696951;84;21466;-52
2021/11/21 07:41:06;;;;;;;7.60;6.85;;;;;;;13.47;49.18;101663.51;1703084;84;21451;-52
2021/11/21 07:43:34;;;;;;;9.35;7.65;;;;;;;13.52;49.26;101656.42;1699980;84;21573;-58
2021/11/21 07:46:01;;;;;;;9.55;7.83;;;;;;;13.58;49.36;101666.79;1697769;83;20986;-52
2021/11/21 07:48:29;;;;;;;10.38;7.30;;;;;;;13.64;49.41;101661.44;1697761;83;21475;-52
2021/11/21 07:50:56;;;;;;;8.40;7.58;;;;;;;13.70;49.20;101664.77;1698140;84;21538;-58
2021/11/21 07:53:22;;;;;;;14.18;9.80;;;;;;;13.77;49.17;101657.66;1692237;84;21053;-52
2021/11/21 07:55:49;;;;;;;9.43;8.18;;;;;;;13.86;49.06;101662.72;1700674;84;21077;-56
2021/11/21 07:58:16;;;;;;;8.00;7.20;;;;;;;13.94;49.01;101659.48;1698110;84;21030;-56
2021/11/21 08:00:42;;;;;;;7.15;6.55;;;;;;;14.03;48.89;101661.05;1697539;84;21049;-52
2021/11/21 08:03:09;;;;;;;7.60;6.85;;;;;;;14.10;48.71;101656.08;1697767;84;21486;-59
2021/11/21 08:05:36;;;;;;;8.78;7.42;;;;;;;14.18;48.51;101653.71;1691581;83;21058;-57
2021/11/21 08:08:05;;;;;;;7.83;6.53;;;;;;;14.22;48.40;101654.05;1701366;84;21566;-58
2021/11/21 08:10:32;;;;;;;9.08;7.40;;;;;;;14.28;48.39;101651.33;1700788;84;21010;-55
2021/11/21 08:13:01;;;;;;;7.17;6.47;;;;;;;14.34;48.28;101651.66;1700090;84;21502;-58
2021/11/21 08:15:28;;;;;;;6.97;6.28;;;;;;;14.39;48.18;101648.03;1700850;83;21506;-58
2021/11/21 08:17:55;;;;;;;7.67;6.90;;;;;;;14.46;47.94;101650.94;1698207;83;21023;-57
2021/11/21 08:20:22;;;;;;;7.37;6.42;;;;;;;14.52;47.97;101648.17;1697659;83;21014;-52
2021/11/21 08:22:49;;;;;;;7.10;6.40;;;;;;;14.60;47.90;101648.84;1697665;83;21038;-53
2021/11/21 08:25:15;;;;;;;7.53;6.83;;;;;;;14.69;47.93;101650.39;1698618;83;21553;-59
2021/11/21 08:27:43;;;;;;;7.62;6.20;;;;;;;14.77;47.63;101647.56;1735590;81;21483;-56
2021/11/21 08:30:10;;;;;;;6.60;6.00;;;;;;;14.86;47.63;101642.11;1700414;84;21040;-53
2021/11/21 08:32:37;;;;;;;9.10;6.47;;;;;;;14.94;47.46;101641.46;1696503;84;21027;-53
2021/11/21 08:35:05;;;;;;;5.83;5.30;;;;;;;15.03;47.28;101637.27;1697851;83;21026;-58
2021/11/21 08:37:33;;;;;;;7.30;5.55;;;;;;;15.10;46.98;101637.53;1698212;83;20998;-55
2021/11/21 08:40:00;;;;;;;6.15;5.55;;;;;;;15.19;46.92;101634.66;1697472;83;20986;-56
2021/11/21 08:42:28;;;;;;;7.92;6.10;;;;;;;15.25;46.75;101627.48;1700387;83;21368;-56
2021/11/21 08:44:54;;;;;;;6.53;5.92;;;;;;;15.32;46.41;101626.87;1700713;84;21011;-55
2021/11/21 08:47:21;;;;;;;9.38;6.90;;;;;;;15.38;46.45;101624.08;1700436;84;21133;-56
2021/11/21 08:49:48;;;;;;;6.70;6.00;;;;;;;15.46;46.38;101628.70;1697468;84;21029;-53
2021/11/21 08:52:15;;;;;;;6.80;6.20;;;;;;;15.51;46.14;101626.81;1699535;83;21125;-52
2021/11/21 08:54:42;;;;;;;11.00;6.60;;;;;;;15.57;45.98;101620.09;1704780;83;21030;-53
2021/11/21 08:57:09;;;;;;;8.35;7.20;;;;;;;15.63;46.06;101619.91;1700700;84;21018;-53
2021/11/21 08:59:35;;;;;;;9.05;7.92;;;;;;;15.70;46.52;101619.28;1736327;81;21038;-54
2021/11/21 09:02:02;;;;;;;10.00;8.28;;;;;;;15.76;47.05;101616.03;1698580;84;21601;-57
2021/11/21 09:04:30;;;;;;;11.33;9.18;;;;;;;15.80;47.28;101615.03;1698619;84;21015;-56
2021/11/21 09:06:56;;;;;;;12.28;9.18;;;;;;;15.84;47.21;101608.80;1699848;84;21010;-57
2021/11/21 09:09:23;;;;;;;13.68;9.73;;;;;;;15.88;46.81;101601.23;1700620;84;21010;-53
2021/11/21 09:11:49;;;;;;;10.82;8.48;;;;;;;15.92;46.36;101604.17;1735909;81;21046;-57
2021/11/21 09:14:18;;;;;;;8.85;7.47;;;;;;;15.96;45.93;101603.17;1698228;84;21066;-58
2021/11/21 09:16:44;;;;;;;8.08;7.28;;;;;;;16.00;46.81;101602.61;1680604;84;21014;-53
2021/11/21 09:19:11;;;;;;;8.53;7.17;;;;;;;16.02;47.16;101608.23;1700571;84;20991;-57
2021/11/21 09:21:38;;;;;;;10.30;7.37;;;;;;;16.02;47.66;101599.04;1700394;83;21030;-60
2021/11/21 09:24:05;;;;;;;8.20;7.40;;;;;;;16.02;48.58;101593.79;1694949;84;21017;-57
2021/11/21 09:26:32;;;;;;;8.48;7.67;;;;;;;16.01;49.16;101590.74;1736386;81;21030;-56
2021/11/21 09:28:58;;;;;;;10.70;7.55;;;;;;;16.02;49.36;101587.23;1723853;81;21007;-54
2021/11/21 09:31:25;;;;;;;9.43;7.67;;;;;;;16.02;49.31;101593.79;1731169;81;21054;-56
2021/11/21 09:33:51;;;;;;;9.08;7.72;;;;;;;16.04;49.45;101589.35;1698233;84;21537;-53
2021/11/21 09:36:18;;;;;;;7.83;6.97;;;;;;;16.08;49.40;101583.55;1700051;83;21029;-53
2021/11/21 09:38:44;;;;;;;7.75;6.87;;;;;;;16.11;49.35;101578.22;1701179;83;21069;-60
2021/11/21 09:41:12;;;;;;;9.78;7.78;;;;;;;16.13;49.36;101577.27;1700841;84;21002;-60
2021/11/21 09:43:44;;;;;;;10.08;7.90;;;;;;;16.16;49.53;101576.28;1735629;81;21019;-56
2021/11/21 09:46:11;;;;;;;8.48;7.53;;;;;;;16.17;49.75;101565.76;1696748;84;21078;-60
2021/11/21 09:48:37;;;;;;;9.08;7.35;;;;;;;16.20;49.71;101561.70;1697600;84;20982;-59
2021/11/21 09:51:04;;;;;;;8.83;7.72;;;;;;;16.23;49.77;101557.67;1697457;84;21503;-53
2021/11/21 09:53:32;;;;;;;10.63;7.95;;;;;;;16.27;49.74;101554.05;1690389;83;21112;-57
2021/11/21 09:55:58;;;;;;;8.00;6.97;;;;;;;16.30;49.96;101549.98;1735480;81;21039;-54
2021/11/21 09:58:26;;;;;;;8.25;6.97;;;;;;;16.35;49.97;101552.91;1734430;81;21011;-54
2021/11/21 10:00:52;;;;;;;8.13;6.80;;;;;;;16.39;49.71;101554.53;1732251;81;21042;-53
2021/11/21 10:03:19;;;;;;;8.03;7.25;;;;;;;16.40;49.74;101548.38;1731244;81;21640;-57
2021/11/21 10:05:50;;;;;;;7.50;6.80;;;;;;;16.41;49.87;101537.81;1731907;81;21015;-57
2021/11/21 10:08:25;;;;;;;7.58;6.87;;;;;;;16.43;50.06;101533.81;1731933;81;20999;-57
2021/11/21 10:11:12;;;;;;;8.80;6.03;;;;;;;16.46;49.79;101542.92;1730744;81;21046;-53
2021/11/21 10:13:52;;;;;;;11.33;6.20;;;;;;;16.47;49.45;101536.75;1731944;81;21503;-57
2021/11/21 10:16:23;;;;;;;7.95;6.42;;;;;;;16.49;48.67;101534.52;1691215;84;21541;-59
2021/11/21 10:19:06;;;;;;;6.70;6.10;;;;;;;16.54;47.98;101538.30;1692393;84;21047;-52
2021/11/21 10:21:37;;;;;;;7.28;6.30;;;;;;;16.59;47.49;101539.02;1690902;84;21059;-53
2021/11/21 10:24:24;;;;;;;6.90;6.20;;;;;;;16.61;47.68;101538.52;1664825;85;21020;-55
2021/11/21 10:27:12;;;;;;;6.95;5.75;;;;;;;16.62;47.67;101524.45;1667756;84;21068;-56
2021/11/21 10:29:43;;;;;;;7.15;5.85;;;;;;;16.65;47.53;101513.36;1625608;88;21066;-57
2021/11/21 10:32:30;;;;;;;7.35;5.97;;;;;;;16.67;47.36;101509.39;1593389;88;21103;-61
2021/11/21 10:34:58;;;;;;;6.25;5.55;;;;;;;16.67;47.57;101508.08;1599475;88;21109;-53
2021/11/21 10:37:35;;;;;;;6.00;5.47;;;;;;;16.63;47.61;101504.68;1601568;89;21158;-56
2021/11/21 10:40:09;;;;;;;6.75;6.08;;;;;;;16.62;47.61;101503.42;1488759;95;21120;-57
2021/11/21 10:42:38;;;;;;;8.25;6.53;;;;;;;16.61;47.72;101500.41;1486909;96;21184;-56
2021/11/21 10:45:07;;;;;;;8.08;6.30;;;;;;;16.62;47.87;101494.23;1485390;96;21149;-53
2021/11/21 10:47:52;;;;;;;8.27;6.43;;;;;;;16.66;47.63;101491.45;1484730;96;21157;-56
2021/11/21 10:50:35;;;;;;;7.80;6.03;;;;;;;16.69;47.44;101476.03;1469999;97;21119;-60
2021/11/21 10:53:07;;;;;;;8.80;7.00;;;;;;;16.71;47.45;101470.27;1471187;97;21229;-53
2021/11/21 10:55:39;;;;;;;8.00;7.15;;;;;;;16.74;47.27;101462.26;1472079;96;21111;-54
2021/11/21 10:58:11;;;;;;;8.75;7.15;;;;;;;16.75;47.22;101467.93;1450295;98;21641;-59
2021/11/21 11:00:37;;;;;;;8.63;6.47;;;;;;;16.75;47.08;101462.23;1446280;98;21103;-58
2021/11/21 11:03:04;;;;;;;6.60;6.00;;;;;;;16.75;47.10;101453.48;1452516;98;21120;-53
2021/11/21 11:05:33;;;;;;;7.08;6.30;;;;;;;16.74;47.33;101451.75;1450597;98;21307;-53
2021/11/21 11:10:36;;;;;;;7.50;6.45;;;;;;;16.74;47.81;101446.04;1434380;99;21096;-56
2021/11/21 11:13:11;;;;;;;8.13;6.42;;;;;;;16.76;48.17;101444.66;1433608;99;21104;-57
2021/11/21 11:15:40;;;;;;;7.75;6.25;;;;;;;16.79;48.27;101444.56;1429179;99;21153;-54
2021/11/21 11:18:07;;;;;;;7.55;6.83;;;;;;;16.83;48.36;101443.09;1436609;100;21637;-53
2021/11/21 11:20:46;;;;;;;7.22;6.25;;;;;;;16.86;48.48;101431.58;1436381;100;21270;-57
2021/11/21 11:23:15;;;;;;;9.73;6.67;;;;;;;16.87;48.14;101430.69;1435863;100;21138;-60
2021/11/21 11:25:44;;;;;;;8.23;6.30;;;;;;;16.87;48.25;101424.11;1436033;100;21128;-53
2021/11/21 11:28:33;;;;;;;7.05;6.35;;;;;;;16.87;48.39;101426.74;1474504;95;21176;-57
2021/11/21 11:31:01;;;;;;;7.05;6.35;;;;;;;16.85;48.27;101428.57;1514231;94;21053;-53